createdAt,value
2023-11-24T00:01:02.445Z,0.90
2023-11-24T00:03:14.121Z,1.23
2023-11-24T00:05:17.796Z,1.48
2023-11-24T00:07:23.021Z,0.98
2023-11-24T00:09:30.615Z,1.05
2023-11-24T00:11:35.345Z,1.52
2023-11-24T00:13:39.596Z,1.17
2023-11-24T00:15:46.081Z,0.73
2023-11-24T00:17:51.301Z,0.50
2023-11-24T00:19:53.999Z,0.60
2023-11-24T00:21:56.200Z,0.40
2023-11-24T00:23:58.953Z,0.40
2023-11-24T00:26:07.187Z,0.50
2023-11-24T00:28:10.037Z,0.50
2023-11-24T00:30:15.401Z,0.30
2023-11-24T00:32:18.379Z,0.57
2023-11-24T00:34:20.756Z,0.20
2023-11-24T00:36:25.912Z,0.60
2023-11-24T00:38:31.182Z,0.22
2023-11-24T00:40:33.609Z,0.60
2023-11-24T00:42:36.915Z,0.85
2023-11-24T00:44:42.788Z,0.32
2023-11-24T00:46:47.852Z,0.50
2023-11-24T00:48:54.028Z,0.30
2023-11-24T00:50:58.994Z,0.15
2023-11-24T00:53:04.071Z,0.40
2023-11-24T00:55:09.456Z,0.20
2023-11-24T00:57:23.831Z,0.30
2023-11-24T00:59:28.896Z,0.20
2023-11-24T01:01:31.758Z,0.47
2023-11-24T01:03:34.482Z,0.28
2023-11-24T01:05:37.780Z,0.52
2023-11-24T01:07:41.637Z,0.40
2023-11-24T01:09:44.674Z,0.35
2023-11-24T01:11:46.859Z,0.20
2023-11-24T01:13:49.730Z,0.20
2023-11-24T01:15:52.398Z,0.57
2023-11-24T01:17:56.102Z,0.32
2023-11-24T01:19:58.286Z,0.32
2023-11-24T01:22:01.228Z,0.20
2023-11-24T01:24:04.056Z,0.40
2023-11-24T01:26:07.106Z,0.55
2023-11-24T01:28:11.663Z,0.40
2023-11-24T01:30:14.404Z,0.30
2023-11-24T01:32:16.627Z,0.43
2023-11-24T01:34:19.286Z,0.20
2023-11-24T01:36:21.831Z,0.30
2023-11-24T01:38:25.071Z,0.60
2023-11-24T01:40:27.625Z,0.82
2023-11-24T01:42:29.844Z,0.40
2023-11-24T01:44:32.992Z,0.40
2023-11-24T01:46:35.335Z,0.25
2023-11-24T01:48:39.501Z,0.40
2023-11-24T01:50:41.991Z,0.63
2023-11-24T01:52:44.907Z,0.25
2023-11-24T01:54:48.623Z,0.32
2023-11-24T01:56:51.811Z,0.50
2023-11-24T01:58:54.418Z,0.20
2023-11-24T02:00:57.418Z,0.50
2023-11-24T02:03:00.160Z,0.52
2023-11-24T02:05:03.177Z,0.32
2023-11-24T02:07:05.906Z,0.32
2023-11-24T02:09:10.784Z,0.30
2023-11-24T02:11:12.932Z,0.35
2023-11-24T02:13:15.542Z,0.40
2023-11-24T02:15:18.327Z,0.20
2023-11-24T02:17:20.927Z,0.20
2023-11-24T02:19:23.388Z,0.50
2023-11-24T02:21:25.899Z,0.30
2023-11-24T02:23:28.643Z,0.60
2023-11-24T02:25:31.363Z,0.40
2023-11-24T02:27:33.926Z,0.73
2023-11-24T02:29:36.435Z,0.30
2023-11-24T02:33:42.276Z,0.82
2023-11-24T02:35:44.906Z,0.68
2023-11-24T02:37:47.672Z,0.60
2023-11-24T02:39:49.830Z,0.60
2023-11-24T02:41:52.631Z,0.82
2023-11-24T02:43:55.699Z,0.60
2023-11-24T02:45:58.281Z,0.40
2023-11-24T02:48:00.509Z,0.40
2023-11-24T02:50:04.313Z,0.68
2023-11-24T02:52:07.044Z,0.20
2023-11-24T02:54:09.949Z,0.30
2023-11-24T02:56:13.041Z,0.38
2023-11-24T02:58:16.653Z,0.50
2023-11-24T03:00:19.620Z,0.30
2023-11-24T03:02:22.554Z,0.35
2023-11-24T03:04:25.340Z,1.02
2023-11-24T03:06:28.618Z,0.60
2023-11-24T03:08:30.848Z,0.20
2023-11-24T03:10:33.348Z,0.28
2023-11-24T03:12:35.737Z,0.30
2023-11-24T03:14:39.614Z,0.10
2023-11-24T03:16:42.144Z,0.40
2023-11-24T03:18:45.081Z,0.30
2023-11-24T03:20:47.685Z,0.20
2023-11-24T03:22:50.147Z,0.40
2023-11-24T03:24:52.877Z,0.82
2023-11-24T03:26:55.377Z,0.20
2023-11-24T03:28:58.677Z,0.47
2023-11-24T03:31:01.201Z,0.30
2023-11-24T03:33:03.971Z,0.32
2023-11-24T03:35:07.494Z,0.43
2023-11-24T03:37:09.739Z,0.10
2023-11-24T03:39:15.655Z,0.40
2023-11-24T03:41:17.922Z,0.20
2023-11-24T03:43:20.382Z,0.40
2023-11-24T03:45:22.960Z,0.20
2023-11-24T03:47:25.425Z,0.30
2023-11-24T03:49:27.621Z,0.20
2023-11-24T03:51:30.611Z,0.47
2023-11-24T03:53:32.904Z,0.75
2023-11-24T03:55:36.965Z,0.60
2023-11-24T03:57:41.244Z,1.00
2023-11-24T03:59:43.694Z,0.43
2023-11-24T04:01:46.271Z,0.93
2023-11-24T04:03:48.871Z,0.75
2023-11-24T04:05:51.176Z,0.68
2023-11-24T04:07:54.058Z,0.75
2023-11-24T04:09:56.532Z,1.33
2023-11-24T04:11:59.549Z,0.60
2023-11-24T04:14:01.782Z,0.82
2023-11-24T04:16:05.680Z,1.02
2023-11-24T04:18:08.422Z,0.85
2023-11-24T04:20:11.272Z,0.80
2023-11-24T04:22:14.009Z,1.23
2023-11-24T04:24:16.496Z,1.20
2023-11-24T04:26:19.548Z,0.60
2023-11-24T04:28:22.134Z,0.80
2023-11-24T04:30:24.294Z,0.73
2023-11-24T04:32:27.182Z,0.93
2023-11-24T04:34:29.631Z,1.27
2023-11-24T04:36:32.261Z,0.70
2023-11-24T04:38:34.823Z,0.80
2023-11-24T04:40:37.910Z,0.90
2023-11-24T04:42:40.243Z,1.15
2023-11-24T04:44:42.803Z,0.98
2023-11-24T04:46:45.623Z,0.60
2023-11-24T04:48:49.657Z,1.10
2023-11-24T04:50:52.371Z,1.00
2023-11-24T04:52:54.857Z,0.75
2023-11-24T04:54:57.538Z,0.93
2023-11-24T04:57:01.453Z,1.17
2023-11-24T04:59:04.188Z,1.25
2023-11-24T05:01:07.209Z,1.67
2023-11-24T05:03:09.529Z,1.15
2023-11-24T05:05:12.755Z,1.30
2023-11-24T05:07:19.218Z,1.13
2023-11-24T05:09:22.232Z,1.33
2023-11-24T05:11:24.400Z,1.00
2023-11-24T05:13:27.257Z,1.08
2023-11-24T05:15:29.431Z,1.20
2023-11-24T05:17:32.339Z,0.90
2023-11-24T05:19:34.639Z,0.82
2023-11-24T05:21:39.975Z,1.00
2023-11-24T05:23:43.777Z,1.38
2023-11-24T05:25:46.593Z,1.40
2023-11-24T05:27:49.536Z,0.60
2023-11-24T05:29:52.160Z,0.70
2023-11-24T05:31:54.446Z,0.80
2023-11-24T05:33:57.453Z,1.17
2023-11-24T05:35:59.821Z,1.30
2023-11-24T05:38:02.738Z,0.80
2023-11-24T05:40:09.122Z,0.73
2023-11-24T05:42:11.843Z,0.75
2023-11-24T05:44:16.813Z,0.70
2023-11-24T05:46:19.965Z,1.30
2023-11-24T05:48:22.590Z,0.50
2023-11-24T05:50:25.419Z,0.70
2023-11-24T05:52:28.077Z,0.57
2023-11-24T05:54:33.523Z,0.70
2023-11-24T05:56:35.775Z,0.80
2023-11-24T05:58:38.660Z,0.80
2023-11-24T06:00:41.751Z,0.80
2023-11-24T06:02:47.906Z,1.00
2023-11-24T06:04:50.819Z,0.80
2023-11-24T06:06:53.890Z,1.00
2023-11-24T06:08:56.637Z,0.70
2023-11-24T06:10:59.152Z,1.15
2023-11-24T06:13:02.065Z,0.75
2023-11-24T06:15:06.181Z,0.88
2023-11-24T06:17:09.983Z,1.52
2023-11-24T06:19:13.609Z,0.88
2023-11-24T06:21:16.396Z,0.73
2023-11-24T06:23:19.287Z,0.82
2023-11-24T06:25:22.966Z,0.90
2023-11-24T06:27:25.456Z,1.02
2023-11-24T06:29:28.071Z,0.68
2023-11-24T06:31:31.078Z,1.35
2023-11-24T06:33:33.663Z,1.40
2023-11-24T06:35:37.716Z,0.90
2023-11-24T06:37:42.176Z,1.55
2023-11-24T06:39:46.539Z,1.17
2023-11-24T06:41:49.420Z,1.55
2023-11-24T06:43:52.250Z,0.88
2023-11-24T06:45:54.372Z,1.15
2023-11-24T06:47:57.228Z,0.90
2023-11-24T06:50:00.520Z,1.00
2023-11-24T06:52:03.275Z,2.13
2023-11-24T06:54:07.064Z,0.75
2023-11-24T06:56:10.087Z,0.95
2023-11-24T06:58:12.873Z,1.17
2023-11-24T07:00:19.375Z,0.98
2023-11-24T07:02:21.945Z,1.90
2023-11-24T07:04:24.833Z,0.88
2023-11-24T07:06:27.184Z,0.98
2023-11-24T07:08:29.647Z,1.45
2023-11-24T07:10:31.968Z,1.55
2023-11-24T07:12:35.218Z,1.63
2023-11-24T07:14:37.344Z,1.20
2023-11-24T07:16:40.024Z,1.45
2023-11-24T07:18:45.413Z,1.58
2023-11-24T07:20:50.322Z,1.77
2023-11-24T07:22:53.049Z,0.90
2023-11-24T07:24:56.694Z,1.00
2023-11-24T07:27:00.909Z,0.75
2023-11-24T07:29:04.831Z,1.70
2023-11-24T07:31:09.086Z,1.35
2023-11-24T07:33:12.115Z,0.63
2023-11-24T07:35:15.726Z,0.93
2023-11-24T07:37:18.604Z,2.45
2023-11-24T07:39:22.136Z,0.90
2023-11-24T07:41:24.620Z,1.00
2023-11-24T07:43:26.832Z,1.75
2023-11-24T07:45:29.416Z,0.93
2023-11-24T07:47:31.892Z,1.30
2023-11-24T07:49:34.994Z,1.23
2023-11-24T07:51:37.217Z,0.90
2023-11-24T07:53:39.885Z,1.90
2023-11-24T07:55:42.962Z,1.15
2023-11-24T07:57:45.573Z,1.08
2023-11-24T07:59:47.985Z,0.90
2023-11-24T08:01:50.694Z,1.48
2023-11-24T08:03:53.245Z,2.45
2023-11-24T08:05:57.274Z,1.02
2023-11-24T08:08:02.075Z,0.90
2023-11-24T08:10:05.881Z,1.90
2023-11-24T08:12:12.333Z,1.23
2023-11-24T08:14:16.255Z,1.23
2023-11-24T08:16:18.541Z,1.13
2023-11-24T08:18:23.198Z,1.38
2023-11-24T08:20:25.394Z,1.60
2023-11-24T08:22:29.807Z,1.35
2023-11-24T08:24:35.075Z,1.42
2023-11-24T08:26:37.779Z,1.73
2023-11-24T08:28:45.150Z,1.58
2023-11-24T08:30:50.395Z,1.75
2023-11-24T08:32:52.853Z,1.55
2023-11-24T08:34:55.541Z,1.65
2023-11-24T08:36:57.738Z,1.95
2023-11-24T08:39:00.597Z,1.50
2023-11-24T08:41:04.050Z,1.33
2023-11-24T08:43:07.082Z,1.60
2023-11-24T08:45:09.699Z,1.23
2023-11-24T08:47:13.730Z,1.40
2023-11-24T08:49:15.975Z,2.17
2023-11-24T08:51:18.836Z,1.45
2023-11-24T08:53:21.318Z,1.30
2023-11-24T08:55:25.129Z,1.20
2023-11-24T08:57:28.227Z,1.55
2023-11-24T08:59:33.110Z,2.10
2023-11-24T09:01:38.515Z,1.83
2023-11-24T09:03:41.280Z,2.40
2023-11-24T09:05:43.577Z,1.70
2023-11-24T09:07:46.431Z,1.63
2023-11-24T09:09:48.700Z,1.70
2023-11-24T09:11:51.426Z,1.33
2023-11-24T09:13:54.022Z,1.98
2023-11-24T09:15:59.192Z,1.55
2023-11-24T09:18:02.785Z,1.70
2023-11-24T09:20:09.544Z,2.65
2023-11-24T09:22:11.936Z,1.67
2023-11-24T09:24:16.179Z,1.48
2023-11-24T09:26:18.320Z,1.55
2023-11-24T09:28:21.914Z,2.22
2023-11-24T09:30:24.616Z,1.40
2023-11-24T09:32:27.136Z,1.58
2023-11-24T09:34:30.051Z,1.70
2023-11-24T09:36:32.602Z,1.33
2023-11-24T09:38:37.736Z,1.58
2023-11-24T09:40:41.134Z,1.92
2023-11-24T09:42:47.658Z,2.20
2023-11-24T09:44:56.028Z,1.73
2023-11-24T09:46:59.049Z,1.83
2023-11-24T09:49:02.790Z,2.10
2023-11-24T09:51:07.453Z,1.55
2023-11-24T09:53:14.211Z,1.42
2023-11-24T09:55:16.513Z,1.98
2023-11-24T09:57:21.982Z,1.95
2023-11-24T09:59:24.319Z,1.83
2023-11-24T10:01:28.288Z,1.75
2023-11-24T10:03:30.859Z,1.35
2023-11-24T10:05:33.947Z,2.17
2023-11-24T10:07:36.636Z,2.05
2023-11-24T10:09:39.993Z,1.85
2023-11-24T10:11:44.088Z,1.95
2023-11-24T10:13:50.011Z,2.13
2023-11-24T10:15:53.734Z,1.95
2023-11-24T10:17:57.642Z,1.88
2023-11-24T10:20:00.326Z,2.00
2023-11-24T10:22:03.900Z,1.88
2023-11-24T10:24:08.611Z,1.70
2023-11-24T10:26:16.939Z,1.90
2023-11-24T10:28:20.030Z,1.92
2023-11-24T10:30:22.542Z,1.75
2023-11-24T10:32:25.005Z,2.67
2023-11-24T10:34:28.686Z,1.60
2023-11-24T10:36:31.611Z,1.90
2023-11-24T10:38:34.915Z,1.35
2023-11-24T10:40:39.360Z,2.03
2023-11-24T10:42:49.767Z,1.48
2023-11-24T10:45:03.642Z,1.67
2023-11-24T10:47:12.727Z,1.60
2023-11-24T10:49:35.987Z,1.50
2023-11-24T10:51:46.469Z,1.60
2023-11-24T10:53:57.991Z,1.63
2023-11-24T10:56:04.802Z,2.20
2023-11-24T10:58:07.742Z,1.45
2023-11-24T11:00:11.015Z,2.33
2023-11-24T11:02:17.882Z,1.30
2023-11-24T11:04:21.738Z,0.82
2023-11-24T11:06:41.431Z,1.30
2023-11-24T11:08:57.319Z,1.95
2023-11-24T11:11:13.486Z,1.38
2023-11-24T11:13:17.150Z,2.40
2023-11-24T11:15:29.829Z,1.85
2023-11-24T11:17:32.464Z,2.67
2023-11-24T11:19:35.359Z,1.30
2023-11-24T11:21:40.378Z,2.70
2023-11-24T11:23:42.993Z,2.88
2023-11-24T11:25:52.527Z,1.98
2023-11-24T11:27:58.313Z,1.83
2023-11-24T11:30:00.849Z,1.70
2023-11-24T11:32:13.725Z,1.30
2023-11-24T11:34:18.358Z,2.05
2023-11-24T11:36:21.121Z,1.73
2023-11-24T11:38:46.935Z,1.63
2023-11-24T11:40:52.925Z,2.20
2023-11-24T11:43:06.759Z,1.13
2023-11-24T11:45:13.706Z,1.08
2023-11-24T11:47:28.379Z,1.75
2023-11-24T11:49:35.882Z,1.30
2023-11-24T11:51:41.137Z,1.85
2023-11-24T11:53:58.234Z,1.40
2023-11-24T11:56:02.117Z,1.45
2023-11-24T11:58:05.828Z,2.03
2023-11-24T12:00:10.462Z,1.15
2023-11-24T12:02:17.074Z,1.00
2023-11-24T12:04:23.570Z,1.50
2023-11-24T12:06:28.697Z,0.73
2023-11-24T12:08:31.132Z,1.67
2023-11-24T12:10:33.461Z,0.70
2023-11-24T12:12:35.912Z,0.90
2023-11-24T12:14:42.723Z,1.10
2023-11-24T12:16:45.969Z,0.90
2023-11-24T12:18:52.416Z,1.15
2023-11-24T12:20:56.191Z,1.50
2023-11-24T12:22:58.778Z,1.88
2023-11-24T12:25:02.362Z,1.58
2023-11-24T12:27:05.770Z,1.60
2023-11-24T12:29:15.853Z,2.50
2023-11-24T12:31:18.835Z,2.03
2023-11-24T12:33:26.003Z,1.73
2023-11-24T12:35:28.776Z,1.38
2023-11-24T12:37:31.441Z,1.75
2023-11-24T12:39:35.442Z,1.95
2023-11-24T12:41:38.149Z,1.60
2023-11-24T12:43:43.431Z,2.30
2023-11-24T12:45:49.511Z,2.17
2023-11-24T12:47:51.942Z,2.17
2023-11-24T12:50:07.887Z,2.28
2023-11-24T12:52:14.068Z,2.00
2023-11-24T12:54:19.986Z,1.23
2023-11-24T12:56:22.100Z,1.83
2023-11-24T12:58:24.576Z,2.22
2023-11-24T13:00:28.534Z,1.50
2023-11-24T13:02:31.735Z,1.23
2023-11-24T13:04:34.269Z,1.35
2023-11-24T13:06:36.761Z,1.73
2023-11-24T13:08:38.849Z,0.93
2023-11-24T13:10:42.048Z,1.02
2023-11-24T13:12:44.948Z,1.10
2023-11-24T13:14:47.607Z,0.98
2023-11-24T13:16:56.265Z,1.65
2023-11-24T13:19:00.279Z,1.58
2023-11-24T13:21:02.923Z,2.73
2023-11-24T13:23:05.689Z,1.60
2023-11-24T13:25:09.920Z,1.33
2023-11-24T13:27:14.191Z,1.35
2023-11-24T13:29:17.089Z,1.77
2023-11-24T13:31:21.199Z,1.45
2023-11-24T13:33:23.408Z,1.60
2023-11-24T13:35:26.800Z,1.42
2023-11-24T13:37:31.652Z,1.63
2023-11-24T13:39:35.618Z,2.80
2023-11-24T13:41:37.755Z,2.13
2023-11-24T13:43:41.582Z,1.90
2023-11-24T13:45:44.213Z,1.80
2023-11-24T13:47:46.854Z,2.28
2023-11-24T13:49:50.432Z,1.80
2023-11-24T13:51:56.282Z,2.38
2023-11-24T13:53:58.693Z,2.30
2023-11-24T13:56:01.700Z,2.53
2023-11-24T13:58:05.034Z,1.80
2023-11-24T14:00:12.652Z,2.33
2023-11-24T14:02:16.589Z,1.75
2023-11-24T14:04:20.285Z,2.15
2023-11-24T14:06:23.724Z,2.20
2023-11-24T14:08:26.252Z,2.17
2023-11-24T14:10:28.559Z,2.58
2023-11-24T14:12:31.281Z,1.85
2023-11-24T14:14:33.540Z,2.42
2023-11-24T14:16:36.497Z,1.60
2023-11-24T14:18:38.678Z,1.70
2023-11-24T14:20:41.612Z,1.80
2023-11-24T14:22:43.972Z,1.42
2023-11-24T14:24:46.398Z,2.03
2023-11-24T14:26:48.524Z,1.40
2023-11-24T14:28:51.026Z,1.07
2023-11-24T14:30:53.330Z,2.10
2023-11-24T14:32:56.023Z,1.75
2023-11-24T14:34:58.278Z,1.30
2023-11-24T14:37:00.729Z,1.63
2023-11-24T14:39:04.386Z,1.55
2023-11-24T14:41:08.945Z,1.63
2023-11-24T14:43:16.364Z,1.13
2023-11-24T14:45:21.690Z,1.73
2023-11-24T14:47:24.793Z,1.87
2023-11-24T14:49:28.950Z,1.77
2023-11-24T14:51:34.164Z,2.47
2023-11-24T14:53:38.196Z,1.70
2023-11-24T14:55:41.929Z,1.90
2023-11-24T14:57:46.640Z,2.20
2023-11-24T14:59:54.838Z,2.20
2023-11-24T15:02:01.272Z,2.73
2023-11-24T15:04:04.159Z,1.83
2023-11-24T15:06:11.885Z,2.30
2023-11-24T15:08:18.141Z,2.23
2023-11-24T15:10:22.086Z,2.60
2023-11-24T15:12:28.267Z,3.07
2023-11-24T15:14:34.209Z,3.40
2023-11-24T15:16:46.055Z,3.00
2023-11-24T15:18:51.750Z,2.77
2023-11-24T15:20:55.036Z,2.97
2023-11-24T15:22:59.669Z,4.27
2023-11-24T15:25:02.234Z,3.13
2023-11-24T15:27:07.794Z,3.67
2023-11-24T15:31:42.996Z,4.30
2023-11-24T15:33:58.947Z,3.50
2023-11-24T15:36:03.594Z,5.77
2023-11-24T15:38:06.257Z,4.83
2023-11-24T15:40:13.391Z,4.93
2023-11-24T15:42:18.333Z,4.40
2023-11-24T15:44:26.562Z,4.90
2023-11-24T15:46:34.425Z,4.10
2023-11-24T15:48:37.267Z,4.60
2023-11-24T15:50:39.852Z,4.10
2023-11-24T15:52:45.378Z,5.43
2023-11-24T15:54:47.617Z,4.53
2023-11-24T15:56:53.410Z,4.07
2023-11-24T15:59:06.379Z,4.33
2023-11-24T16:01:09.296Z,4.73
2023-11-24T16:03:16.532Z,3.87
2023-11-24T16:05:19.367Z,4.97
2023-11-24T16:07:24.124Z,4.33
2023-11-24T16:09:29.605Z,4.47
2023-11-24T16:11:33.246Z,3.83
2023-11-24T16:13:37.916Z,4.50
2023-11-24T16:15:43.092Z,3.83
2023-11-24T16:17:51.499Z,4.73
2023-11-24T16:19:56.048Z,4.67
2023-11-24T16:21:58.688Z,3.23
2023-11-24T16:24:01.272Z,5.10
2023-11-24T16:26:03.865Z,3.60
2023-11-24T16:28:06.147Z,3.13
2023-11-24T16:30:10.477Z,4.67
2023-11-24T16:32:12.766Z,3.60
2023-11-24T16:34:17.012Z,4.00
2023-11-24T16:36:19.656Z,3.93
2023-11-24T16:38:22.256Z,3.00
2023-11-24T16:40:24.438Z,4.73
2023-11-24T16:42:26.891Z,4.37
2023-11-24T16:44:32.931Z,3.90
2023-11-24T16:46:36.526Z,4.10
2023-11-24T16:48:42.192Z,3.77
2023-11-24T16:50:44.662Z,5.37
2023-11-24T16:52:47.861Z,4.40
2023-11-24T16:54:51.268Z,3.37
2023-11-24T16:56:54.487Z,4.57
2023-11-24T16:58:58.030Z,4.10
2023-11-24T17:01:00.871Z,4.07
2023-11-24T17:03:04.713Z,3.87
2023-11-24T17:05:07.422Z,5.10
2023-11-24T17:07:10.050Z,4.90
2023-11-24T17:09:16.730Z,3.60
2023-11-24T17:11:19.686Z,4.70
2023-11-24T17:13:21.923Z,4.33
2023-11-24T17:15:24.523Z,4.85
2023-11-24T17:17:26.858Z,5.17
2023-11-24T17:19:31.952Z,5.90
2023-11-24T17:21:34.144Z,4.13
2023-11-24T17:23:42.348Z,4.57
2023-11-24T17:25:47.069Z,4.53
2023-11-24T17:27:50.411Z,4.87
2023-11-24T17:29:52.624Z,5.63
2023-11-24T17:31:56.826Z,5.70
2023-11-24T17:33:59.632Z,5.53
2023-11-24T17:36:04.395Z,5.77
2023-11-24T17:38:07.186Z,5.87
2023-11-24T17:40:10.648Z,4.87
2023-11-24T17:42:12.876Z,6.13
2023-11-24T17:44:17.277Z,5.27
2023-11-24T17:46:20.036Z,5.30
2023-11-24T17:48:23.600Z,5.70
2023-11-24T17:50:27.043Z,5.47
2023-11-24T17:52:29.597Z,5.77
2023-11-24T17:54:32.530Z,6.47
2023-11-24T17:56:35.060Z,4.63
2023-11-24T17:58:37.394Z,5.37
2023-11-24T18:00:41.442Z,4.90
2023-11-24T18:02:43.946Z,4.83
2023-11-24T18:04:46.419Z,5.30
2023-11-24T18:06:48.539Z,3.50
2023-11-24T18:08:55.908Z,4.90
2023-11-24T18:10:58.238Z,5.10
2023-11-24T18:13:01.739Z,4.60
2023-11-24T18:15:05.560Z,3.97
2023-11-24T18:17:08.289Z,5.30
2023-11-24T18:19:10.599Z,4.47
2023-11-24T18:21:14.780Z,5.87
2023-11-24T18:23:16.992Z,4.00
2023-11-24T18:25:20.869Z,4.97
2023-11-24T18:27:25.288Z,5.37
2023-11-24T18:29:29.053Z,4.27
2023-11-24T18:31:32.185Z,4.83
2023-11-24T18:33:34.763Z,4.77
2023-11-24T18:35:40.633Z,4.20
2023-11-24T18:37:44.221Z,5.13
2023-11-24T18:39:48.657Z,5.40
2023-11-24T18:41:53.774Z,4.00
2023-11-24T18:43:57.140Z,5.13
2023-11-24T18:46:02.416Z,5.60
2023-11-24T18:48:05.875Z,5.33
2023-11-24T18:50:09.073Z,5.47
2023-11-24T18:52:11.717Z,4.87
2023-11-24T18:54:15.660Z,5.13
2023-11-24T18:56:22.082Z,4.63
2023-11-24T18:58:25.839Z,4.03
2023-11-24T19:00:29.005Z,4.47
2023-11-24T19:02:33.414Z,4.20
2023-11-24T19:04:35.891Z,5.23
2023-11-24T19:06:39.142Z,4.87
2023-11-24T19:08:42.647Z,5.10
2023-11-24T19:10:45.654Z,5.20
2023-11-24T19:12:52.433Z,5.50
2023-11-24T19:14:55.389Z,5.83
2023-11-24T19:16:58.124Z,5.77
2023-11-24T19:19:01.150Z,6.33
2023-11-24T19:21:08.664Z,5.07
2023-11-24T19:23:11.250Z,5.37
2023-11-24T19:25:13.728Z,3.70
2023-11-24T19:27:16.375Z,4.53
2023-11-24T19:29:18.633Z,4.07
2023-11-24T19:31:21.545Z,3.80
2023-11-24T19:33:23.826Z,3.73
2023-11-24T19:35:26.740Z,3.83
2023-11-24T19:37:29.088Z,3.90
2023-11-24T19:39:32.345Z,3.87
2023-11-24T19:41:34.545Z,4.20
2023-11-24T19:43:37.253Z,3.07
2023-11-24T19:45:39.738Z,3.70
2023-11-24T19:47:42.309Z,3.33
2023-11-24T19:49:47.297Z,4.27
2023-11-24T19:51:49.935Z,3.37
2023-11-24T19:53:54.327Z,4.17
2023-11-24T19:55:57.033Z,3.50
2023-11-24T19:57:59.620Z,4.50
2023-11-24T20:00:02.479Z,3.53
2023-11-24T20:02:06.220Z,3.73
2023-11-24T20:04:09.450Z,3.40
2023-11-24T20:06:11.732Z,4.67
2023-11-24T20:08:14.177Z,4.73
2023-11-24T20:10:16.413Z,4.47
2023-11-24T20:12:19.013Z,5.20
2023-11-24T20:14:22.507Z,4.53
2023-11-24T20:16:25.032Z,4.93
2023-11-24T20:18:27.261Z,4.37
2023-11-24T20:20:32.326Z,4.40
2023-11-24T20:22:34.550Z,4.20
2023-11-24T20:24:37.634Z,4.90
2023-11-24T20:26:41.339Z,3.77
2023-11-24T20:28:46.770Z,4.33
2023-11-24T20:30:49.983Z,5.27
2023-11-24T20:32:54.256Z,4.17
2023-11-24T20:34:56.557Z,4.50
2023-11-24T20:36:59.201Z,4.20
2023-11-24T20:39:01.624Z,4.87
2023-11-24T20:41:04.333Z,5.03
2023-11-24T20:43:07.494Z,4.23
2023-11-24T20:45:13.341Z,4.67
2023-11-24T20:47:15.781Z,4.00
2023-11-24T20:49:19.718Z,4.23
2023-11-24T20:53:24.726Z,3.73
2023-11-24T20:55:28.106Z,4.37
2023-11-24T20:57:32.743Z,3.63
2023-11-24T20:59:35.391Z,4.30
2023-11-24T21:01:38.062Z,4.47
2023-11-24T21:03:40.950Z,4.00
2023-11-24T21:05:49.136Z,4.20
2023-11-24T21:07:53.858Z,4.18
2023-11-24T21:09:56.404Z,5.33
2023-11-24T21:11:58.912Z,4.80
2023-11-24T21:14:01.567Z,3.83
2023-11-24T21:16:04.060Z,3.77
2023-11-24T21:18:07.498Z,4.07
2023-11-24T21:20:11.441Z,3.87
2023-11-24T21:22:15.349Z,3.53
2023-11-24T21:24:17.802Z,4.03
2023-11-24T21:26:21.606Z,5.10
2023-11-24T21:28:24.153Z,3.57
2023-11-24T21:30:28.968Z,4.83
2023-11-24T21:32:33.798Z,5.00
2023-11-24T21:34:38.371Z,4.07
2023-11-24T21:36:40.499Z,4.00
2023-11-24T21:38:45.953Z,3.87
2023-11-24T21:40:49.339Z,4.00
2023-11-24T21:42:54.774Z,3.77
2023-11-24T21:44:58.315Z,4.83
2023-11-24T21:47:01.788Z,4.23
2023-11-24T21:49:05.024Z,4.67
2023-11-24T21:51:07.915Z,4.27
2023-11-24T21:53:10.110Z,4.93
2023-11-24T21:55:12.697Z,4.63
2023-11-24T21:57:14.923Z,6.20
2023-11-24T21:59:17.361Z,4.90
2023-11-24T22:01:23.676Z,5.47
2023-11-24T22:03:26.321Z,5.70
2023-11-24T22:05:28.997Z,5.17
2023-11-24T22:07:34.801Z,5.27
2023-11-24T22:09:37.487Z,5.83
2023-11-24T22:11:40.862Z,6.10
2023-11-24T22:13:43.039Z,5.87
2023-11-24T22:15:48.946Z,5.50
2023-11-24T22:17:51.194Z,6.13
2023-11-24T22:19:53.620Z,5.63
2023-11-24T22:21:55.834Z,5.03
2023-11-24T22:24:01.181Z,6.40
2023-11-24T22:26:03.916Z,6.33
2023-11-24T22:28:06.399Z,6.23
2023-11-24T22:30:08.855Z,5.30
2023-11-24T22:32:11.635Z,5.97
2023-11-24T22:34:14.186Z,6.23
2023-11-24T22:36:20.895Z,4.90
2023-11-24T22:38:23.285Z,4.70
2023-11-24T22:40:25.753Z,5.73
2023-11-24T22:42:28.123Z,5.20
2023-11-24T22:44:30.610Z,5.47
2023-11-24T22:46:34.123Z,6.27
2023-11-24T22:48:36.988Z,5.23
2023-11-24T22:50:39.257Z,5.17
2023-11-24T22:52:41.822Z,6.57
2023-11-24T22:54:44.030Z,5.00
2023-11-24T22:56:46.511Z,7.20
2023-11-24T22:58:52.880Z,5.40
2023-11-24T23:01:00.338Z,5.33
2023-11-24T23:03:03.271Z,5.50
2023-11-24T23:05:06.682Z,4.93
2023-11-24T23:07:09.228Z,6.60
2023-11-24T23:09:13.641Z,5.77
2023-11-24T23:11:19.552Z,4.60
2023-11-24T23:13:22.838Z,5.77
2023-11-24T23:15:25.806Z,5.20
2023-11-24T23:17:28.730Z,6.10
2023-11-24T23:19:30.988Z,5.50
2023-11-24T23:21:33.568Z,5.73
2023-11-24T23:23:36.219Z,5.13
2023-11-24T23:25:38.741Z,5.03
2023-11-24T23:27:41.134Z,5.63
2023-11-24T23:29:46.500Z,5.50
2023-11-24T23:31:49.381Z,4.00
2023-11-24T23:33:52.234Z,5.87
2023-11-24T23:35:54.429Z,5.03
2023-11-24T23:37:57.010Z,4.43
2023-11-24T23:39:59.252Z,4.57
2023-11-24T23:42:02.564Z,4.93
2023-11-24T23:44:05.823Z,4.20
2023-11-24T23:46:08.994Z,4.03
2023-11-24T23:48:12.648Z,5.47
2023-11-24T23:50:15.880Z,4.93
2023-11-24T23:52:18.478Z,4.53
2023-11-24T23:54:20.971Z,5.13
2023-11-24T23:56:23.384Z,4.33
2023-11-24T23:58:27.204Z,4.27
